Time,TemperatureF,DewpointF,PressureIn,WindDirection,WindDirectionDegrees,WindSpeedMPH,WindSpeedGustMPH,Humidity,HourlyPrecipIn,Conditions,Clouds,dailyrainin,SoftwareType,DateUTC
2013-05-19 00:01:00,71.7,70.5,30.07,ESE,119,0.0,0.0,96,0.00,RA,,0.00,WeatherDisplay:10.37,2013-05-19 04:01:00,
2013-05-19 00:02:00,71.7,70.5,30.07,ESE,119,0.0,0.0,96,0.00,RA,,0.00,WeatherDisplay:10.37,2013-05-19 04:02:00,
2013-05-19 00:07:00,71.7,70.5,30.07,ESE,119,0.0,0.0,96,0.00,RA,,0.00,WeatherDisplay:10.37,2013-05-19 04:07:00,
2013-05-19 00:12:00,71.6,70.4,30.07,ESE,119,0.0,0.0,96,0.00,CLR,,0.00,WeatherDisplay:10.37,2013-05-19 04:12:00,
2013-05-19 00:17:00,71.5,70.3,30.06,ESE,121,0.0,0.1,96,0.00,CLR,,0.00,WeatherDisplay:10.37,2013-05-19 04:17:00,
2013-05-19 00:22:00,71.5,70.3,30.06,SE,128,0.0,0.0,96,0.00,CLR,,0.00,WeatherDisplay:10.37,2013-05-19 04:22:00,
2013-05-19 00:27:00,71.4,70.2,30.06,SE,128,0.0,0.0,96,0.00,CLR,,0.00,WeatherDisplay:10.37,2013-05-19 04:27:00,
2013-05-19 00:32:00,71.3,70.1,30.06,SE,128,0.0,0.0,96,0.00,CLR,,0.00,WeatherDisplay:10.37,2013-05-19 04:32:00,
2013-05-19 00:37:00,71.2,70.0,30.06,SE,128,1.1,0.0,96,0.00,CLR,,0.00,WeatherDisplay:10.37,2013-05-19 04:37:00,
2013-05-19 00:42:00,71.2,70.0,30.06,SE,128,0.0,0.0,96,0.00,CLR,,0.00,WeatherDisplay:10.37,2013-05-19 04:42:00,
2013-05-19 00:47:00,71.2,70.0,30.06,SE,128,0.0,0.0,96,0.00,CLR,,0.00,WeatherDisplay:10.37,2013-05-19 04:47:00,
2013-05-19 00:52:00,71.1,69.9,30.06,SE,128,0.0,0.0,96,0.00,CLR,,0.00,WeatherDisplay:10.37,2013-05-19 04:52:00,
2013-05-19 00:57:00,71.1,69.9,30.06,SE,128,0.0,0.0,96,0.00,CLR,,0.00,WeatherDisplay:10.37,2013-05-19 04:57:00,
2013-05-19 01:02:00,71.0,69.8,30.05,SE,128,0.0,0.0,96,0.00,CLR,,0.00,WeatherDisplay:10.37,2013-05-19 05:02:00,
2013-05-19 01:07:00,71.0,69.8,30.05,SE,128,0.0,0.0,96,0.00,CLR,,0.00,WeatherDisplay:10.37,2013-05-19 05:07:00,
2013-05-19 01:12:00,70.9,69.7,30.05,SE,128,0.0,0.0,96,0.00,CLR,,0.00,WeatherDisplay:10.37,2013-05-19 05:12:00,
2013-05-19 01:17:00,70.9,69.7,30.05,SE,128,0.0,0.0,96,0.00,CLR,,0.00,WeatherDisplay:10.37,2013-05-19 05:17:00,
2013-05-19 01:22:00,70.8,69.6,30.05,SE,128,1.1,0.0,96,0.00,CLR,,0.00,WeatherDisplay:10.37,2013-05-19 05:22:00,
2013-05-19 01:27:00,70.8,69.6,30.05,SE,128,0.0,0.0,96,0.00,CLR,,0.00,WeatherDisplay:10.37,2013-05-19 05:27:00,
2013-05-19 01:32:00,70.8,69.6,30.05,SE,128,0.0,0.0,96,0.00,CLR,,0.00,WeatherDisplay:10.37,2013-05-19 05:32:00,
2013-05-19 01:37:00,70.7,69.5,30.05,SE,128,0.0,0.0,96,0.00,CLR,,0.00,WeatherDisplay:10.37,2013-05-19 05:37:00,
2013-05-19 01:42:00,70.7,69.5,30.05,SE,128,0.0,0.0,96,0.00,CLR,,0.00,WeatherDisplay:10.37,2013-05-19 05:42:00,
2013-05-19 01:47:00,70.6,69.4,30.05,SE,128,0.0,0.0,96,0.00,CLR,,0.00,WeatherDisplay:10.37,2013-05-19 05:47:00,
2013-05-19 01:52:00,70.6,69.4,30.04,SE,128,0.0,0.0,96,0.00,CLR,,0.00,WeatherDisplay:10.37,2013-05-19 05:52:00,
2013-05-19 01:57:00,70.5,69.3,30.04,SE,128,0.0,0.0,96,0.00,CLR,,0.00,WeatherDisplay:10.37,2013-05-19 05:57:00,
2013-05-19 02:02:00,70.5,69.3,30.04,SE,128,0.0,0.0,96,0.00,CLR,,0.00,WeatherDisplay:10.37,2013-05-19 06:02:00,
2013-05-19 02:07:00,70.5,69.6,30.04,SE,128,0.0,0.0,97,0.00,CLR,,0.00,WeatherDisplay:10.37,2013-05-19 06:07:00,
2013-05-19 02:12:00,70.4,69.5,30.04,SE,128,0.0,0.0,97,0.00,CLR,,0.00,WeatherDisplay:10.37,2013-05-19 06:12:00,
2013-05-19 02:17:00,70.5,69.6,30.04,SE,128,0.0,0.0,97,0.00,CLR,,0.00,WeatherDisplay:10.37,2013-05-19 06:17:00,
2013-05-19 02:22:00,70.6,69.7,30.03,SE,128,0.0,0.0,97,0.00,CLR,,0.00,WeatherDisplay:10.37,2013-05-19 06:22:00,
2013-05-19 02:27:00,70.7,69.8,30.03,SE,128,0.0,0.0,97,0.00,CLR,,0.00,WeatherDisplay:10.37,2013-05-19 06:27:00,
2013-05-19 02:32:00,70.8,69.9,30.03,SE,128,0.0,0.0,97,0.00,CLR,,0.00,WeatherDisplay:10.37,2013-05-19 06:32:00,
2013-05-19 02:37:00,70.9,70.0,30.03,SE,128,0.0,0.1,97,0.00,CLR,,0.00,WeatherDisplay:10.37,2013-05-19 06:37:00,
2013-05-19 02:42:00,71.0,70.1,30.03,South,173,4.0,4.0,97,0.00,CLR,,0.00,WeatherDisplay:10.37,2013-05-19 06:42:00,
2013-05-19 02:47:00,71.1,70.2,30.03,SSE,152,1.1,1.1,97,0.00,CLR,,0.00,WeatherDisplay:10.37,2013-05-19 06:47:00,
2013-05-19 02:52:00,71.2,70.3,30.03,SSE,152,1.1,1.1,97,0.00,CLR,,0.00,WeatherDisplay:10.37,2013-05-19 06:52:00,
2013-05-19 02:57:00,71.2,70.3,30.03,SSE,153,1.0,0.0,97,0.00,CLR,,0.00,WeatherDisplay:10.37,2013-05-19 06:57:00,
2013-05-19 03:02:00,71.2,70.3,30.03,SE,142,2.3,2.3,97,0.00,CLR,,0.00,WeatherDisplay:10.37,2013-05-19 07:02:00,
2013-05-19 03:07:00,71.2,70.3,30.03,SE,144,4.0,4.0,97,0.00,CLR,,0.00,WeatherDisplay:10.37,2013-05-19 07:07:00,
2013-05-19 03:12:00,71.2,70.3,30.03,South,175,2.0,2.0,97,0.00,CLR,,0.00,WeatherDisplay:10.37,2013-05-19 07:12:00,
2013-05-19 03:17:00,71.2,70.3,30.03,SSE,152,1.1,1.8,97,0.00,CLR,,0.00,WeatherDisplay:10.37,2013-05-19 07:17:00,
2013-05-19 03:22:00,71.2,70.3,30.03,SSE,152,2.3,2.3,97,0.00,CLR,,0.00,WeatherDisplay:10.37,2013-05-19 07:22:00,
2013-05-19 03:27:00,71.3,70.4,30.03,SSE,153,4.6,0.0,97,0.00,CLR,,0.00,WeatherDisplay:10.37,2013-05-19 07:27:00,
2013-05-19 03:32:00,71.2,70.3,30.03,SSE,152,1.0,1.0,97,0.00,CLR,,0.00,WeatherDisplay:10.37,2013-05-19 07:32:00,
2013-05-19 03:37:00,71.2,70.3,30.03,SSE,152,3.5,3.5,97,0.00,CLR,,0.00,WeatherDisplay:10.37,2013-05-19 07:37:00,
2013-05-19 03:42:00,71.2,70.3,30.03,SSE,147,5.8,5.8,97,0.00,CLR,,0.00,WeatherDisplay:10.37,2013-05-19 07:42:00,
2013-05-19 03:47:00,71.3,70.4,30.03,SSE,150,2.3,0.0,97,0.00,CLR,,0.00,WeatherDisplay:10.37,2013-05-19 07:47:00,
2013-05-19 03:52:00,71.2,70.3,30.03,SSE,150,2.3,0.0,97,0.00,CLR,,0.00,WeatherDisplay:10.37,2013-05-19 07:52:00,
2013-05-19 03:57:00,71.2,70.3,30.03,SSE,150,0.0,0.1,97,0.00,CLR,,0.00,WeatherDisplay:10.37,2013-05-19 07:57:00,
2013-05-19 04:02:00,71.2,70.3,30.03,SSE,150,3.5,3.5,97,0.00,CLR,,0.00,WeatherDisplay:10.37,2013-05-19 08:02:00,
2013-05-19 04:07:00,71.1,70.2,30.03,SSE,153,4.0,4.0,97,0.00,CLR,,0.00,WeatherDisplay:10.37,2013-05-19 08:07:00,
2013-05-19 04:12:00,71.0,70.1,30.03,SSE,148,1.1,0.0,97,0.00,CLR,,0.00,WeatherDisplay:10.37,2013-05-19 08:12:00,
2013-05-19 04:17:00,70.9,70.0,30.03,SE,140,0.0,0.0,97,0.00,CLR,,0.00,WeatherDisplay:10.37,2013-05-19 08:17:00,
2013-05-19 04:22:00,70.9,70.0,30.04,SE,141,0.0,0.0,97,0.00,CLR,,0.00,WeatherDisplay:10.37,2013-05-19 08:22:00,
2013-05-19 04:27:00,70.8,69.9,30.03,SE,141,3.5,3.5,97,0.00,CLR,,0.00,WeatherDisplay:10.37,2013-05-19 08:27:00,
2013-05-19 04:32:00,70.7,69.8,30.03,SE,141,1.1,0.0,97,0.00,CLR,,0.00,WeatherDisplay:10.37,2013-05-19 08:32:00,
2013-05-19 04:37:00,70.6,69.7,30.04,SE,141,4.0,4.0,97,0.00,CLR,,0.00,WeatherDisplay:10.37,2013-05-19 08:37:00,
2013-05-19 04:42:00,70.6,69.7,30.03,SSE,148,1.1,1.1,97,0.00,CLR,,0.00,WeatherDisplay:10.37,2013-05-19 08:42:00,
2013-05-19 04:47:00,70.5,69.6,30.04,SSE,148,1.1,0.0,97,0.00,CLR,,0.00,WeatherDisplay:10.37,2013-05-19 08:47:00,
2013-05-19 04:52:00,70.4,69.5,30.03,SSE,148,0.0,0.0,97,0.00,CLR,,0.00,WeatherDisplay:10.37,2013-05-19 08:52:00,
2013-05-19 04:57:00,70.4,69.5,30.03,SSE,148,0.0,0.0,97,0.00,CLR,,0.00,WeatherDisplay:10.37,2013-05-19 08:57:00,
2013-05-19 05:02:00,70.3,69.4,30.03,SSE,148,1.1,1.1,97,0.00,CLR,,0.00,WeatherDisplay:10.37,2013-05-19 09:02:00,
2013-05-19 05:07:00,70.2,69.3,30.03,SSE,148,0.0,0.0,97,0.00,CLR,,0.00,WeatherDisplay:10.37,2013-05-19 09:07:00,
2013-05-19 05:12:00,70.2,69.3,30.03,SSE,148,0.0,0.0,97,0.00,CLR,,0.00,WeatherDisplay:10.37,2013-05-19 09:12:00,
2013-05-19 05:17:00,70.1,69.2,30.03,SSE,148,0.0,0.0,97,0.00,CLR,,0.00,WeatherDisplay:10.37,2013-05-19 09:17:00,
2013-05-19 05:22:00,70.1,69.2,30.03,SSE,158,4.0,4.0,97,0.00,CLR,,0.00,WeatherDisplay:10.37,2013-05-19 09:22:00,
2013-05-19 05:27:00,70.1,69.2,30.03,SSE,158,0.0,0.9,97,0.00,CLR,,0.00,WeatherDisplay:10.37,2013-05-19 09:27:00,
2013-05-19 05:32:00,70.1,69.2,30.03,SSE,152,1.1,0.0,97,0.00,CLR,,0.00,WeatherDisplay:10.37,2013-05-19 09:32:00,
2013-05-19 05:37:00,70.1,69.2,30.03,SSE,159,2.3,2.3,97,0.00,CLR,,0.00,WeatherDisplay:10.37,2013-05-19 09:37:00,
2013-05-19 05:42:00,70.2,69.3,30.04,SSE,159,0.0,0.0,97,0.00,CLR,,0.00,WeatherDisplay:10.37,2013-05-19 09:42:00,
2013-05-19 05:47:00,70.2,69.3,30.04,SSE,159,0.0,0.0,97,0.00,CLR,,0.00,WeatherDisplay:10.37,2013-05-19 09:47:00,
2013-05-19 05:52:00,70.2,69.3,30.04,SSE,159,0.0,0.0,97,0.00,CLR,,0.00,WeatherDisplay:10.37,2013-05-19 09:52:00,
2013-05-19 05:57:00,70.2,69.3,30.04,SSE,159,0.0,0.0,97,0.00,CLR,,0.00,WeatherDisplay:10.37,2013-05-19 09:57:00,
2013-05-19 06:02:00,70.2,69.3,30.04,SSE,159,0.0,0.0,97,0.00,CLR,,0.00,WeatherDisplay:10.37,2013-05-19 10:02:00,
2013-05-19 06:07:00,70.1,69.2,30.04,SSE,159,1.1,1.1,97,0.00,CLR,,0.00,WeatherDisplay:10.37,2013-05-19 10:07:00,
2013-05-19 06:12:00,70.1,69.2,30.04,SSE,159,0.0,0.0,97,0.00,CLR,,0.00,WeatherDisplay:10.37,2013-05-19 10:12:00,
2013-05-19 06:17:00,70.1,69.2,30.04,SSE,159,0.0,0.2,97,0.00,CLR,,0.00,WeatherDisplay:10.37,2013-05-19 10:17:00,
2013-05-19 06:22:00,70.1,69.2,30.04,SSE,157,1.1,1.1,97,0.00,CLR,,0.00,WeatherDisplay:10.37,2013-05-19 10:22:00,
2013-05-19 06:27:00,70.0,69.1,30.04,SSE,157,0.0,0.0,97,0.00,CLR,,0.00,WeatherDisplay:10.37,2013-05-19 10:27:00,
2013-05-19 06:32:00,70.0,69.1,30.05,SSE,157,1.1,1.1,97,0.00,CLR,,0.00,WeatherDisplay:10.37,2013-05-19 10:32:00,
2013-05-19 06:37:00,70.0,69.1,30.05,SSE,157,0.0,0.0,97,0.00,CLR,,0.00,WeatherDisplay:10.37,2013-05-19 10:37:00,
2013-05-19 06:42:00,70.0,69.1,30.05,SSE,157,0.0,0.0,97,0.00,CLR,,0.00,WeatherDisplay:10.37,2013-05-19 10:42:00,
2013-05-19 06:47:00,70.0,69.1,30.05,SSE,157,0.0,0.0,97,0.00,CLR,,0.00,WeatherDisplay:10.37,2013-05-19 10:47:00,
2013-05-19 06:52:00,69.9,69.0,30.05,SSE,157,0.0,0.0,97,0.00,CLR,,0.00,WeatherDisplay:10.37,2013-05-19 10:52:00,
2013-05-19 06:57:00,69.9,69.0,30.05,SSE,157,0.0,0.0,97,0.00,CLR,,0.00,WeatherDisplay:10.37,2013-05-19 10:57:00,
2013-05-19 07:02:00,69.9,69.0,30.05,SSE,157,0.0,0.0,97,0.00,CLR,,0.00,WeatherDisplay:10.37,2013-05-19 11:02:00,
2013-05-19 07:07:00,69.8,68.9,30.05,SSE,157,0.0,0.0,97,0.00,CLR,,0.00,WeatherDisplay:10.37,2013-05-19 11:07:00,
2013-05-19 07:12:00,69.9,69.0,30.05,SSE,157,0.0,0.0,97,0.00,CLR,,0.00,WeatherDisplay:10.37,2013-05-19 11:12:00,
2013-05-19 07:17:00,69.9,69.0,30.05,SSE,157,0.0,0.0,97,0.00,CLR,,0.00,WeatherDisplay:10.37,2013-05-19 11:17:00,
2013-05-19 07:22:00,70.0,69.1,30.06,SSE,157,1.1,1.1,97,0.00,CLR,,0.00,WeatherDisplay:10.37,2013-05-19 11:22:00,
2013-05-19 07:27:00,70.1,69.2,30.06,SSE,157,0.0,0.0,97,0.00,CLR,,0.00,WeatherDisplay:10.37,2013-05-19 11:27:00,
2013-05-19 07:32:00,70.1,69.2,30.06,SSE,157,0.0,0.0,97,0.00,CLR,,0.00,WeatherDisplay:10.37,2013-05-19 11:32:00,
2013-05-19 07:37:00,70.3,69.4,30.06,SSE,157,1.1,1.1,97,0.00,CLR,,0.00,WeatherDisplay:10.37,2013-05-19 11:37:00,
2013-05-19 07:42:00,70.4,69.5,30.05,SSE,152,5.8,5.8,97,0.00,CLR,,0.00,WeatherDisplay:10.37,2013-05-19 11:42:00,
2013-05-19 07:47:00,70.6,69.7,30.06,SSE,165,4.6,4.6,97,0.00,CLR,,0.00,WeatherDisplay:10.37,2013-05-19 11:47:00,
2013-05-19 07:52:00,70.7,69.8,30.05,SE,144,3.5,3.5,97,0.00,CLR,,0.00,WeatherDisplay:10.37,2013-05-19 11:52:00,
2013-05-19 07:57:00,70.9,70.0,30.05,SSE,163,4.6,4.6,97,0.00,CLR,,0.00,WeatherDisplay:10.37,2013-05-19 11:57:00,
2013-05-19 08:02:00,71.1,70.2,30.05,SSE,163,0.0,0.1,97,0.00,CLR,,0.00,WeatherDisplay:10.37,2013-05-19 12:02:00,
2013-05-19 08:07:00,71.2,70.3,30.05,SSE,163,5.8,5.8,97,0.00,CLR,,0.00,WeatherDisplay:10.37,2013-05-19 12:07:00,
2013-05-19 08:12:00,71.3,70.1,30.06,South,176,8.1,8.1,96,0.00,CLR,,0.00,WeatherDisplay:10.37,2013-05-19 12:12:00,
2013-05-19 08:17:00,71.3,70.1,30.06,South,169,2.3,2.3,96,0.00,CLR,,0.00,WeatherDisplay:10.37,2013-05-19 12:17:00,
2013-05-19 08:22:00,71.4,69.9,30.06,South,185,5.8,5.8,95,0.00,CLR,,0.00,WeatherDisplay:10.37,2013-05-19 12:22:00,
2013-05-19 08:27:00,71.6,70.1,30.06,South,173,3.5,3.8,95,0.00,CLR,,0.00,WeatherDisplay:10.37,2013-05-19 12:27:00,
2013-05-19 08:32:00,71.9,70.4,30.06,SSE,156,6.9,6.9,95,0.00,CLR,,0.00,WeatherDisplay:10.37,2013-05-19 12:32:00,
2013-05-19 08:37:00,72.1,70.6,30.06,SSE,157,8.1,8.1,95,0.00,CLR,,0.00,WeatherDisplay:10.37,2013-05-19 12:37:00,
2013-05-19 08:42:00,72.3,70.2,30.07,SSW,194,2.3,2.3,93,0.00,CLR,,0.00,WeatherDisplay:10.37,2013-05-19 12:42:00,
2013-05-19 08:47:00,72.5,70.4,30.07,SSE,162,2.3,0.0,93,0.00,CLR,,0.00,WeatherDisplay:10.37,2013-05-19 12:47:00,
2013-05-19 08:52:00,72.7,70.6,30.07,SSE,155,1.0,0.0,93,0.00,CLR,,0.00,WeatherDisplay:10.37,2013-05-19 12:52:00,
2013-05-19 08:57:00,73.0,70.9,30.07,South,190,1.1,0.0,93,0.00,CLR,,0.00,WeatherDisplay:10.37,2013-05-19 12:57:00,
2013-05-19 09:02:00,73.1,71.0,30.08,ESE,110,1.1,0.0,93,0.00,CLR,,0.00,WeatherDisplay:10.37,2013-05-19 13:02:00,
2013-05-19 09:07:00,73.3,71.2,30.08,SSE,155,4.0,4.0,93,0.00,CLR,,0.00,WeatherDisplay:10.37,2013-05-19 13:07:00,
2013-05-19 09:12:00,73.6,71.4,30.07,South,173,0.0,0.0,93,0.00,CLR,,0.00,WeatherDisplay:10.37,2013-05-19 13:12:00,
2013-05-19 09:17:00,73.8,71.6,30.07,SSW,213,1.1,1.1,93,0.00,CLR,,0.00,WeatherDisplay:10.37,2013-05-19 13:17:00,
2013-05-19 09:22:00,74.0,71.5,30.07,South,169,3.5,0.0,92,0.00,CLR,,0.00,WeatherDisplay:10.37,2013-05-19 13:22:00,
2013-05-19 09:27:00,74.3,71.8,30.07,South,173,0.0,0.7,92,0.00,CLR,,0.00,WeatherDisplay:10.37,2013-05-19 13:27:00,
2013-05-19 09:32:00,74.6,72.1,30.07,South,172,2.0,0.0,92,0.00,CLR,,0.00,WeatherDisplay:10.37,2013-05-19 13:32:00,
2013-05-19 09:37:00,74.8,72.0,30.08,SE,125,1.1,1.1,91,0.00,CLR,,0.00,WeatherDisplay:10.37,2013-05-19 13:37:00,
2013-05-19 09:42:00,75.1,72.0,30.08,SSW,193,1.1,0.0,90,0.00,CLR,,0.00,WeatherDisplay:10.37,2013-05-19 13:42:00,
2013-05-19 09:47:00,75.3,72.2,30.08,SSW,198,1.1,1.1,90,0.00,CLR,,0.00,WeatherDisplay:10.37,2013-05-19 13:47:00,
2013-05-19 09:52:00,75.6,72.1,30.08,SSW,200,4.6,4.6,89,0.00,CLR,,0.00,WeatherDisplay:10.37,2013-05-19 13:52:00,
2013-05-19 09:57:00,75.9,72.8,30.08,SE,131,1.0,1.0,90,0.00,CLR,,0.00,WeatherDisplay:10.37,2013-05-19 13:57:00,
2013-05-19 10:02:00,76.4,72.9,30.07,SSE,159,4.6,4.6,89,0.00,CLR,,0.00,WeatherDisplay:10.37,2013-05-19 14:02:00,
2013-05-19 10:07:00,76.7,73.5,30.07,SSE,161,0.0,0.0,90,0.00,CLR,,0.00,WeatherDisplay:10.37,2013-05-19 14:07:00,
2013-05-19 10:12:00,77.0,73.2,30.08,ESE,117,0.0,0.0,88,0.00,CLR,,0.00,WeatherDisplay:10.37,2013-05-19 14:12:00,
2013-05-19 10:17:00,77.3,73.1,30.07,South,184,1.1,1.1,87,0.00,CLR,,0.00,WeatherDisplay:10.37,2013-05-19 14:17:00,
2013-05-19 10:22:00,77.6,73.1,30.07,SSE,158,1.1,1.2,86,0.00,CLR,,0.00,WeatherDisplay:10.37,2013-05-19 14:22:00,
2013-05-19 10:27:00,77.9,73.0,30.07,South,169,4.6,4.6,85,0.00,CLR,,0.00,WeatherDisplay:10.37,2013-05-19 14:27:00,
2013-05-19 10:32:00,78.2,73.7,30.07,South,184,1.1,1.3,86,0.00,CLR,,0.00,WeatherDisplay:10.37,2013-05-19 14:32:00,
2013-05-19 10:37:00,78.6,73.4,30.07,SSE,155,4.6,4.6,84,0.00,CLR,,0.00,WeatherDisplay:10.37,2013-05-19 14:37:00,
2013-05-19 10:42:00,78.9,73.7,30.07,SE,137,1.1,1.1,84,0.00,CLR,,0.00,WeatherDisplay:10.37,2013-05-19 14:42:00,
2013-05-19 10:47:00,79.2,73.9,30.07,SSW,200,3.5,3.5,84,0.00,CLR,,0.00,WeatherDisplay:10.37,2013-05-19 14:47:00,
2013-05-19 10:52:00,79.4,73.4,30.07,SW,219,1.1,1.1,82,0.00,CLR,,0.00,WeatherDisplay:10.37,2013-05-19 14:52:00,
2013-05-19 10:57:00,79.6,74.0,30.07,South,190,2.3,2.3,83,0.00,CLR,,0.00,WeatherDisplay:10.37,2013-05-19 14:57:00,
2013-05-19 11:02:00,79.7,73.7,30.07,SW,225,1.1,1.1,82,0.00,CLR,,0.00,WeatherDisplay:10.37,2013-05-19 15:02:00,
2013-05-19 11:07:00,79.9,74.3,30.07,SE,134,3.5,0.0,83,0.00,CLR,,0.00,WeatherDisplay:10.37,2013-05-19 15:07:00,
2013-05-19 11:12:00,80.2,74.2,30.08,SE,136,0.0,0.0,82,0.00,CLR,,0.00,WeatherDisplay:10.37,2013-05-19 15:12:00,
2013-05-19 11:17:00,80.5,73.8,30.07,SE,140,2.3,2.3,80,0.00,CLR,,0.00,WeatherDisplay:10.37,2013-05-19 15:17:00,
2013-05-19 11:22:00,80.8,73.7,30.07,SE,126,2.3,0.0,79,0.00,CLR,,0.00,WeatherDisplay:10.37,2013-05-19 15:22:00,
2013-05-19 11:27:00,80.9,74.5,30.07,SSE,153,0.0,0.0,81,0.00,CLR,,0.00,WeatherDisplay:10.37,2013-05-19 15:27:00,
2013-05-19 11:32:00,81.3,74.2,30.07,WSW,238,1.1,0.0,79,0.00,CLR,,0.00,WeatherDisplay:10.37,2013-05-19 15:32:00,
2013-05-19 11:37:00,81.7,74.2,30.07,SSW,206,2.3,2.3,78,0.00,CLR,,0.00,WeatherDisplay:10.37,2013-05-19 15:37:00,
2013-05-19 11:42:00,82.1,74.9,30.07,SSW,200,1.1,1.1,79,0.00,CLR,,0.00,WeatherDisplay:10.37,2013-05-19 15:42:00,
2013-05-19 11:47:00,82.0,74.8,30.07,SSE,148,4.0,4.0,79,0.00,CLR,,0.00,WeatherDisplay:10.37,2013-05-19 15:47:00,
2013-05-19 11:52:00,82.1,74.9,30.07,SSE,156,4.0,4.0,79,0.00,CLR,,0.00,WeatherDisplay:10.37,2013-05-19 15:52:00,
2013-05-19 11:57:00,82.3,74.4,30.07,SSE,156,0.0,0.0,77,0.00,CLR,,0.00,WeatherDisplay:10.37,2013-05-19 15:57:00,
2013-05-19 12:02:00,82.4,74.5,30.07,SSE,158,4.6,0.0,77,0.00,CLR,,0.00,WeatherDisplay:10.37,2013-05-19 16:02:00,
2013-05-19 12:07:00,82.7,74.8,30.07,SSE,149,2.3,2.3,77,0.00,CLR,,0.00,WeatherDisplay:10.37,2013-05-19 16:07:00,
2013-05-19 12:12:00,83.0,74.3,30.06,SSW,193,1.0,0.0,75,0.00,CLR,,0.00,WeatherDisplay:10.37,2013-05-19 16:12:00,
2013-05-19 12:17:00,83.2,74.0,30.07,SSW,193,0.0,0.0,74,0.00,CLR,,0.00,WeatherDisplay:10.37,2013-05-19 16:17:00,
2013-05-19 12:22:00,83.2,74.0,30.07,SSE,159,1.1,0.0,74,0.00,CLR,,0.00,WeatherDisplay:10.37,2013-05-19 16:22:00,
2013-05-19 12:27:00,83.2,74.0,30.06,SSE,159,0.0,0.0,74,0.00,CLR,,0.00,WeatherDisplay:10.37,2013-05-19 16:27:00,
2013-05-19 12:32:00,83.1,74.4,30.06,SSE,159,0.0,0.1,75,0.00,CLR,,0.00,WeatherDisplay:10.37,2013-05-19 16:32:00,
2013-05-19 12:37:00,82.9,73.8,30.06,SSE,159,1.1,0.0,74,0.00,CLR,,0.00,WeatherDisplay:10.37,2013-05-19 16:37:00,
2013-05-19 12:42:00,82.8,74.1,30.05,SSE,159,0.0,0.0,75,0.00,CLR,,0.00,WeatherDisplay:10.37,2013-05-19 16:42:00,
2013-05-19 12:47:00,82.7,73.6,30.05,SSE,159,1.1,0.0,74,0.00,CLR,,0.00,WeatherDisplay:10.37,2013-05-19 16:47:00,
2013-05-19 12:52:00,82.5,73.4,30.05,SSE,159,0.0,0.0,74,0.00,CLR,,0.00,WeatherDisplay:10.37,2013-05-19 16:52:00,
2013-05-19 12:57:00,82.4,74.1,30.05,SSE,159,0.0,0.0,76,0.00,CLR,,0.00,WeatherDisplay:10.37,2013-05-19 16:57:00,
2013-05-19 13:02:00,82.3,74.7,30.05,SSE,159,0.0,0.0,78,0.00,CLR,,0.00,WeatherDisplay:10.37,2013-05-19 17:02:00,
2013-05-19 13:07:00,82.1,73.8,30.05,SSE,159,0.0,0.0,76,0.00,CLR,,0.00,WeatherDisplay:10.37,2013-05-19 17:07:00,
2013-05-19 13:12:00,81.9,74.7,30.05,SSE,159,0.0,0.0,79,0.00,CLR,,0.00,WeatherDisplay:10.37,2013-05-19 17:12:00,
2013-05-19 13:17:00,81.9,75.1,30.05,SSE,159,0.0,0.0,80,0.00,CLR,,0.00,WeatherDisplay:10.37,2013-05-19 17:17:00,
2013-05-19 13:22:00,81.8,75.0,30.05,SSE,159,0.0,0.1,80,0.00,CLR,,0.00,WeatherDisplay:10.37,2013-05-19 17:22:00,
2013-05-19 13:27:00,81.6,75.9,30.04,SSE,158,5.0,5.0,83,0.00,CLR,,0.00,WeatherDisplay:10.37,2013-05-19 17:27:00,
2013-05-19 13:32:00,81.0,73.9,30.04,South,173,6.0,6.0,79,0.00,CLR,,0.00,WeatherDisplay:10.37,2013-05-19 17:32:00,
2013-05-19 13:37:00,80.3,72.8,30.03,SSE,167,2.3,2.3,78,0.00,CLR,,0.00,WeatherDisplay:10.37,2013-05-19 17:37:00,
2013-05-19 13:42:00,79.5,72.0,30.03,South,178,6.9,6.9,78,0.00,CLR,,0.00,WeatherDisplay:10.37,2013-05-19 17:42:00,
2013-05-19 13:47:00,78.9,71.8,30.03,SSE,155,4.6,4.6,79,0.00,CLR,,0.00,WeatherDisplay:10.37,2013-05-19 17:47:00,
2013-05-19 13:52:00,78.8,71.4,30.03,SE,146,4.6,4.6,78,0.00,CLR,,0.00,WeatherDisplay:10.37,2013-05-19 17:52:00,
2013-05-19 13:57:00,79.0,71.9,30.03,SE,146,0.0,0.0,79,0.00,CLR,,0.00,WeatherDisplay:10.37,2013-05-19 17:57:00,
2013-05-19 14:02:00,79.3,72.6,30.03,SE,146,0.0,0.0,80,0.00,CLR,,0.00,WeatherDisplay:10.37,2013-05-19 18:02:00,
2013-05-19 14:07:00,79.6,72.5,30.02,SE,146,1.1,0.0,79,0.00,CLR,,0.00,WeatherDisplay:10.37,2013-05-19 18:07:00,
2013-05-19 14:12:00,79.8,73.8,30.03,SE,146,0.0,0.0,82,0.00,CLR,,0.00,WeatherDisplay:10.37,2013-05-19 18:12:00,
2013-05-19 14:17:00,80.2,73.5,30.02,SE,146,1.1,0.0,80,0.00,CLR,,0.00,WeatherDisplay:10.37,2013-05-19 18:17:00,
2013-05-19 14:22:00,80.5,73.0,30.02,SSE,150,0.0,0.0,78,0.00,CLR,,0.00,WeatherDisplay:10.37,2013-05-19 18:22:00,
2013-05-19 14:27:00,80.9,72.2,30.02,SSE,157,3.5,3.5,75,0.00,CLR,,0.00,WeatherDisplay:10.37,2013-05-19 18:27:00,
2013-05-19 14:32:00,81.3,73.8,30.01,SSE,158,3.5,0.0,78,0.00,CLR,,0.00,WeatherDisplay:10.37,2013-05-19 18:32:00,
2013-05-19 14:37:00,81.6,72.9,30.01,South,169,4.0,4.0,75,0.00,CLR,,0.00,WeatherDisplay:10.37,2013-05-19 18:37:00,
2013-05-19 14:42:00,82.1,73.4,30.01,SSE,161,5.0,5.0,75,0.00,CLR,,0.00,WeatherDisplay:10.37,2013-05-19 18:42:00,
2013-05-19 14:47:00,82.8,74.1,30.01,SSE,161,1.1,1.1,75,0.00,CLR,,0.00,WeatherDisplay:10.37,2013-05-19 18:47:00,
2013-05-19 14:52:00,83.2,72.0,30.00,SSE,165,6.9,6.9,69,0.00,CLR,,0.00,WeatherDisplay:10.37,2013-05-19 18:52:00,
2013-05-19 14:57:00,83.4,73.0,30.01,SE,142,2.0,2.0,71,0.00,CLR,,0.00,WeatherDisplay:10.37,2013-05-19 18:57:00,
2013-05-19 15:02:00,83.8,73.4,30.00,SE,142,0.0,0.0,71,0.00,CLR,,0.00,WeatherDisplay:10.37,2013-05-19 19:02:00,
2013-05-19 15:07:00,83.9,73.5,30.00,SE,126,8.1,8.1,71,0.00,CLR,,0.00,WeatherDisplay:10.37,2013-05-19 19:07:00,
2013-05-19 15:12:00,83.8,73.4,30.00,SE,143,5.8,5.8,71,0.00,CLR,,0.00,WeatherDisplay:10.37,2013-05-19 19:12:00,
2013-05-19 15:17:00,83.7,73.3,30.00,SSE,148,3.5,3.5,71,0.00,CLR,,0.00,WeatherDisplay:10.37,2013-05-19 19:17:00,
2013-05-19 15:22:00,83.6,74.4,30.01,South,188,13.8,13.8,74,0.00,CLR,,0.00,WeatherDisplay:10.37,2013-05-19 19:22:00,
2013-05-19 15:27:00,83.6,74.0,30.01,South,169,10.0,10.0,73,0.00,CLR,,0.00,WeatherDisplay:10.37,2013-05-19 19:27:00,
2013-05-19 15:32:00,83.3,72.1,30.01,East,80,10.4,10.4,69,0.00,CLR,,0.00,WeatherDisplay:10.37,2013-05-19 19:32:00,
2013-05-19 15:37:00,82.9,72.9,30.01,SSE,153,4.6,4.6,72,0.00,CLR,,0.00,WeatherDisplay:10.37,2013-05-19 19:37:00,
2013-05-19 15:42:00,82.8,73.7,30.01,SE,145,2.3,2.3,74,0.00,CLR,,0.00,WeatherDisplay:10.37,2013-05-19 19:42:00,
2013-05-19 15:47:00,82.5,74.2,30.01,SSE,166,5.0,5.0,76,0.00,CLR,,0.00,WeatherDisplay:10.37,2013-05-19 19:47:00,
2013-05-19 15:52:00,82.0,74.5,30.01,SSE,167,1.1,0.0,78,0.00,CLR,,0.00,WeatherDisplay:10.37,2013-05-19 19:52:00,
2013-05-19 15:57:00,81.6,74.8,30.01,South,184,11.5,11.5,80,0.00,CLR,,0.00,WeatherDisplay:10.37,2013-05-19 19:57:00,
2013-05-19 16:02:00,81.1,74.3,30.01,SSE,157,5.8,5.8,80,0.00,CLR,,0.00,WeatherDisplay:10.37,2013-05-19 20:02:00,
2013-05-19 16:07:00,80.8,74.0,30.01,SSE,159,4.6,4.6,80,0.00,CLR,,0.00,WeatherDisplay:10.37,2013-05-19 20:07:00,
2013-05-19 16:12:00,80.8,74.4,30.00,SSE,153,3.5,3.5,81,0.00,CLR,,0.00,WeatherDisplay:10.37,2013-05-19 20:12:00,
2013-05-19 16:17:00,81.1,74.7,30.00,South,169,3.5,3.5,81,0.00,CLR,,0.00,WeatherDisplay:10.37,2013-05-19 20:17:00,
2013-05-19 16:22:00,81.2,74.8,29.99,SSE,152,3.5,3.5,81,0.00,CLR,,0.00,WeatherDisplay:10.37,2013-05-19 20:22:00,
2013-05-19 16:27:00,81.2,74.8,29.98,South,171,2.3,2.3,81,0.00,CLR,,0.00,WeatherDisplay:10.37,2013-05-19 20:27:00,
2013-05-19 16:32:00,81.1,75.1,29.98,SSE,156,10.4,10.4,82,0.00,CLR,,0.00,WeatherDisplay:10.37,2013-05-19 20:32:00,
2013-05-19 16:37:00,81.0,75.3,29.99,South,183,0.0,0.2,83,0.00,CLR,,0.00,WeatherDisplay:10.37,2013-05-19 20:37:00,
2013-05-19 16:42:00,81.0,75.3,29.99,South,176,3.5,3.5,83,0.00,CLR,,0.00,WeatherDisplay:10.37,2013-05-19 20:42:00,
2013-05-19 16:47:00,81.0,75.0,30.00,South,176,2.0,2.0,82,0.00,CLR,,0.00,WeatherDisplay:10.37,2013-05-19 20:47:00,
2013-05-19 16:52:00,81.0,74.2,30.00,SSE,153,4.6,4.6,80,0.00,CLR,,0.00,WeatherDisplay:10.37,2013-05-19 20:52:00,
2013-05-19 16:57:00,81.0,74.2,30.00,SSE,153,1.1,0.0,80,0.00,CLR,,0.00,WeatherDisplay:10.37,2013-05-19 20:57:00,
2013-05-19 17:02:00,81.0,74.2,30.00,SSE,159,4.6,4.6,80,0.00,CLR,,0.00,WeatherDisplay:10.37,2013-05-19 21:02:00,
2013-05-19 17:07:00,81.2,74.1,30.00,SSE,153,4.6,4.6,79,0.00,CLR,,0.00,WeatherDisplay:10.37,2013-05-19 21:07:00,
2013-05-19 17:12:00,81.4,74.3,30.00,SSE,161,6.9,6.9,79,0.00,CLR,,0.00,WeatherDisplay:10.37,2013-05-19 21:12:00,
2013-05-19 17:17:00,81.4,74.3,30.00,SSE,147,2.3,2.4,79,0.00,CLR,,0.00,WeatherDisplay:10.37,2013-05-19 21:17:00,
2013-05-19 17:22:00,81.3,74.2,30.00,SSE,157,0.0,0.1,79,0.00,CLR,,0.00,WeatherDisplay:10.37,2013-05-19 21:22:00,
2013-05-19 17:27:00,81.1,73.6,30.00,SSE,163,11.5,11.5,78,0.00,CLR,,0.00,WeatherDisplay:10.37,2013-05-19 21:27:00,
2013-05-19 17:32:00,80.9,73.0,30.00,SSE,167,4.6,5.4,77,0.00,CLR,,0.00,WeatherDisplay:10.37,2013-05-19 21:32:00,
2013-05-19 17:37:00,80.8,72.9,30.00,South,187,4.6,4.6,77,0.00,CLR,,0.00,WeatherDisplay:10.37,2013-05-19 21:37:00,
2013-05-19 17:42:00,80.8,72.9,30.00,SSE,155,8.0,8.0,77,0.00,CLR,,0.00,WeatherDisplay:10.37,2013-05-19 21:42:00,
2013-05-19 17:47:00,80.7,73.2,29.99,SSE,163,9.2,9.2,78,0.00,CLR,,0.00,WeatherDisplay:10.37,2013-05-19 21:47:00,
2013-05-19 17:52:00,80.7,73.2,29.99,SSE,163,13.0,13.0,78,0.00,CLR,,0.00,WeatherDisplay:10.37,2013-05-19 21:52:00,
2013-05-19 17:57:00,80.7,72.8,29.99,East,100,11.5,11.5,77,0.00,CLR,,0.00,WeatherDisplay:10.37,2013-05-19 21:57:00,
2013-05-19 18:02:00,80.6,72.7,29.99,SE,146,11.5,11.5,77,0.00,CLR,,0.00,WeatherDisplay:10.37,2013-05-19 22:02:00,
2013-05-19 18:07:00,80.5,72.6,29.99,SSE,148,15.0,15.0,77,0.00,CLR,,0.00,WeatherDisplay:10.37,2013-05-19 22:07:00,
2013-05-19 18:12:00,80.2,71.6,30.00,SSE,158,8.1,8.1,75,0.00,CLR,,0.00,WeatherDisplay:10.37,2013-05-19 22:12:00,
2013-05-19 18:17:00,79.8,70.8,30.00,SSE,154,6.9,6.9,74,0.00,CLR,,0.00,WeatherDisplay:10.37,2013-05-19 22:17:00,
2013-05-19 18:22:00,79.4,70.0,30.00,SE,125,6.9,6.9,73,0.00,CLR,,0.00,WeatherDisplay:10.37,2013-05-19 22:22:00,
2013-05-19 18:27:00,79.2,69.8,30.00,SE,146,2.3,2.3,73,0.00,CLR,,0.00,WeatherDisplay:10.37,2013-05-19 22:27:00,
2013-05-19 18:32:00,78.9,69.9,30.00,South,178,3.5,3.5,74,0.00,CLR,,0.00,WeatherDisplay:10.37,2013-05-19 22:32:00,
2013-05-19 18:37:00,78.8,69.4,29.99,SSE,167,2.3,2.3,73,0.00,CLR,,0.00,WeatherDisplay:10.37,2013-05-19 22:37:00,
2013-05-19 18:42:00,78.6,69.2,30.00,SSE,163,8.1,8.1,73,0.00,CLR,,0.00,WeatherDisplay:10.37,2013-05-19 22:42:00,
2013-05-19 18:47:00,78.4,69.0,30.00,SE,142,3.5,3.5,73,0.00,CLR,,0.00,WeatherDisplay:10.37,2013-05-19 22:47:00,
2013-05-19 18:52:00,78.3,69.3,30.00,SE,142,0.0,0.0,74,0.00,CLR,,0.00,WeatherDisplay:10.37,2013-05-19 22:52:00,
2013-05-19 18:57:00,78.3,69.7,30.00,SE,142,1.1,0.0,75,0.00,CLR,,0.00,WeatherDisplay:10.37,2013-05-19 22:57:00,
2013-05-19 19:02:00,78.2,70.0,30.00,SE,142,2.0,2.0,76,0.00,CLR,,0.00,WeatherDisplay:10.37,2013-05-19 23:02:00,
2013-05-19 19:07:00,78.1,69.9,30.00,SE,144,0.0,0.5,76,0.00,CLR,,0.00,WeatherDisplay:10.37,2013-05-19 23:07:00,
2013-05-19 19:12:00,78.0,70.2,30.00,SE,144,0.0,0.1,77,0.00,CLR,,0.00,WeatherDisplay:10.37,2013-05-19 23:12:00,
2013-05-19 19:17:00,77.9,70.1,29.99,SSE,148,4.0,4.0,77,0.00,CLR,,0.00,WeatherDisplay:10.37,2013-05-19 23:17:00,
2013-05-19 19:22:00,77.9,70.5,29.99,SSE,157,0.0,0.1,78,0.00,CLR,,0.00,WeatherDisplay:10.37,2013-05-19 23:22:00,
2013-05-19 19:27:00,77.8,70.0,29.99,SSE,161,4.6,4.6,77,0.00,CLR,,0.00,WeatherDisplay:10.37,2013-05-19 23:27:00,
2013-05-19 19:32:00,77.8,69.6,29.99,SSE,152,9.2,9.2,76,0.00,CLR,,0.00,WeatherDisplay:10.37,2013-05-19 23:32:00,
2013-05-19 19:37:00,77.8,69.6,30.00,SSE,155,3.5,3.5,76,0.00,CLR,,0.00,WeatherDisplay:10.37,2013-05-19 23:37:00,
2013-05-19 19:42:00,77.7,69.5,30.00,SSE,159,3.5,3.5,76,0.00,CLR,,0.00,WeatherDisplay:10.37,2013-05-19 23:42:00,
2013-05-19 19:47:00,77.7,69.5,30.00,SSE,166,4.6,4.6,76,0.00,CLR,,0.00,WeatherDisplay:10.37,2013-05-19 23:47:00,
2013-05-19 19:52:00,77.6,69.8,30.00,SSE,161,3.5,3.5,77,0.00,CLR,,0.00,WeatherDisplay:10.37,2013-05-19 23:52:00,
2013-05-19 19:57:00,77.6,70.2,30.01,South,173,0.0,0.0,78,0.00,CLR,,0.00,WeatherDisplay:10.37,2013-05-19 23:57:00,
2013-05-19 20:02:00,77.5,70.1,30.01,SSE,157,5.8,5.8,78,0.00,CLR,,0.00,WeatherDisplay:10.37,2013-05-20 00:02:00,
2013-05-19 20:07:00,77.5,70.1,30.01,SSE,147,5.8,5.8,78,0.00,CLR,,0.00,WeatherDisplay:10.37,2013-05-20 00:07:00,
2013-05-19 20:12:00,77.5,70.5,30.01,SSE,163,1.1,1.1,79,0.00,CLR,,0.00,WeatherDisplay:10.37,2013-05-20 00:12:00,
2013-05-19 20:17:00,77.4,70.0,30.03,South,176,0.0,0.0,78,0.00,CLR,,0.00,WeatherDisplay:10.37,2013-05-20 00:17:00,
2013-05-19 20:22:00,77.4,70.0,30.03,SSE,154,10.4,10.4,78,0.00,CLR,,0.00,WeatherDisplay:10.37,2013-05-20 00:22:00,
2013-05-19 20:27:00,77.2,69.8,30.03,SSE,163,1.1,1.1,78,0.00,CLR,,0.00,WeatherDisplay:10.37,2013-05-20 00:27:00,
2013-05-19 20:32:00,77.1,69.7,30.02,SSE,164,5.8,5.8,78,0.00,CLR,,0.00,WeatherDisplay:10.37,2013-05-20 00:32:00,
2013-05-19 20:37:00,77.2,69.8,30.03,SSE,160,2.3,2.3,78,0.00,CLR,,0.00,WeatherDisplay:10.37,2013-05-20 00:37:00,
2013-05-19 20:42:00,77.2,69.8,30.03,SSE,160,1.1,0.0,78,0.00,CLR,,0.00,WeatherDisplay:10.37,2013-05-20 00:42:00,
2013-05-19 20:47:00,77.1,70.1,30.02,SSE,160,3.5,3.5,79,0.00,CLR,,0.00,WeatherDisplay:10.37,2013-05-20 00:47:00,
2013-05-19 20:52:00,77.0,70.0,30.03,SSE,160,1.1,0.0,79,0.00,CLR,,0.00,WeatherDisplay:10.37,2013-05-20 00:52:00,
2013-05-19 20:57:00,76.8,69.8,30.03,SSE,160,1.1,0.0,79,0.00,CLR,,0.00,WeatherDisplay:10.37,2013-05-20 00:57:00,
2013-05-19 21:02:00,76.7,69.7,30.03,SSE,160,1.0,0.0,79,0.00,CLR,,0.00,WeatherDisplay:10.37,2013-05-20 01:02:00,
2013-05-19 21:07:00,76.6,70.0,30.03,SSE,160,0.0,0.1,80,0.00,CLR,,0.00,WeatherDisplay:10.37,2013-05-20 01:07:00,
2013-05-19 21:12:00,76.6,70.0,30.03,SSE,160,2.3,0.0,80,0.00,CLR,,0.00,WeatherDisplay:10.37,2013-05-20 01:12:00,
2013-05-19 21:17:00,76.5,70.2,30.03,SSE,160,2.0,2.0,81,0.00,CLR,,0.00,WeatherDisplay:10.37,2013-05-20 01:17:00,
2013-05-19 21:22:00,76.4,70.1,30.03,SSE,160,4.0,4.0,81,0.00,CLR,,0.00,WeatherDisplay:10.37,2013-05-20 01:22:00,
2013-05-19 21:27:00,76.4,70.1,30.03,SSE,160,4.6,4.6,81,0.00,CLR,,0.00,WeatherDisplay:10.37,2013-05-20 01:27:00,
2013-05-19 21:32:00,76.4,70.1,30.03,SSE,160,2.0,2.0,81,0.00,CLR,,0.00,WeatherDisplay:10.37,2013-05-20 01:32:00,
2013-05-19 21:37:00,76.4,70.5,30.04,SSE,160,1.1,0.0,82,0.00,CLR,,0.00,WeatherDisplay:10.37,2013-05-20 01:37:00,
2013-05-19 21:42:00,76.4,70.5,30.04,SSE,160,1.1,0.0,82,0.00,CLR,,0.00,WeatherDisplay:10.37,2013-05-20 01:42:00,
2013-05-19 21:47:00,76.3,70.4,30.05,South,181,1.1,1.1,82,0.00,CLR,,0.00,WeatherDisplay:10.37,2013-05-20 01:47:00,
2013-05-19 21:52:00,76.3,70.4,30.05,South,176,2.0,2.0,82,0.00,CLR,,0.00,WeatherDisplay:10.37,2013-05-20 01:52:00,
2013-05-19 21:57:00,76.3,70.8,30.05,SSE,150,3.5,3.5,83,0.00,CLR,,0.00,WeatherDisplay:10.37,2013-05-20 01:57:00,
2013-05-19 22:02:00,76.3,70.8,30.06,SSE,150,0.0,0.0,83,0.00,CLR,,0.00,WeatherDisplay:10.37,2013-05-20 02:02:00,
2013-05-19 22:07:00,76.3,71.1,30.07,SSE,150,0.0,0.0,84,0.00,CLR,,0.00,WeatherDisplay:10.37,2013-05-20 02:07:00,
2013-05-19 22:12:00,76.3,71.1,30.08,SSE,150,0.0,0.0,84,0.00,CLR,,0.00,WeatherDisplay:10.37,2013-05-20 02:12:00,
2013-05-19 22:17:00,76.2,70.7,30.09,SSE,150,0.0,0.0,83,0.00,CLR,,0.00,WeatherDisplay:10.37,2013-05-20 02:17:00,
2013-05-19 22:22:00,76.1,70.9,30.09,SSE,150,1.1,0.0,84,0.00,CLR,,0.00,WeatherDisplay:10.37,2013-05-20 02:22:00,
2013-05-19 22:27:00,76.1,70.6,30.09,SSE,150,0.0,0.0,83,0.00,CLR,,0.00,WeatherDisplay:10.37,2013-05-20 02:27:00,
2013-05-19 22:32:00,76.1,71.3,30.09,North,10,1.1,1.1,85,0.00,CLR,,0.00,WeatherDisplay:10.37,2013-05-20 02:32:00,
2013-05-19 22:37:00,76.0,71.2,30.09,North,5,2.3,2.3,85,0.00,CLR,,0.00,WeatherDisplay:10.37,2013-05-20 02:37:00,
2013-05-19 22:42:00,76.0,70.8,30.10,WNW,298,3.5,3.5,84,0.00,CLR,,0.00,WeatherDisplay:10.37,2013-05-20 02:42:00,
2013-05-19 22:47:00,75.4,69.5,30.10,North,355,3.5,3.5,82,0.00,CLR,,0.00,WeatherDisplay:10.37,2013-05-20 02:47:00,
2013-05-19 22:52:00,74.8,69.3,30.10,WNW,300,1.1,0.0,83,0.00,CLR,,0.00,WeatherDisplay:10.37,2013-05-20 02:52:00,
2013-05-19 22:57:00,74.1,69.3,30.10,NW,319,0.0,0.0,85,0.00,CLR,,0.00,WeatherDisplay:10.37,2013-05-20 02:57:00,
2013-05-19 23:02:00,73.4,69.0,30.10,NW,318,1.1,0.0,86,0.00,CLR,,0.00,WeatherDisplay:10.37,2013-05-20 03:02:00,
2013-05-19 23:07:00,72.7,68.6,30.09,SSW,194,1.1,1.1,87,0.00,CLR,,0.00,WeatherDisplay:10.37,2013-05-20 03:07:00,
2013-05-19 23:12:00,71.9,68.5,30.09,SW,235,8.1,8.1,89,0.01,RA,,0.01,WeatherDisplay:10.37,2013-05-20 03:12:00,
2013-05-19 23:17:00,71.2,68.1,30.09,NW,317,3.5,3.5,90,0.01,RA,,0.01,WeatherDisplay:10.37,2013-05-20 03:17:00,
2013-05-19 23:22:00,70.6,67.8,30.09,South,184,3.5,3.5,91,0.02,RA,,0.02,WeatherDisplay:10.37,2013-05-20 03:22:00,
2013-05-19 23:27:00,70.1,67.7,30.08,WSW,247,1.1,1.1,92,0.02,RA,,0.02,WeatherDisplay:10.37,2013-05-20 03:27:00,
2013-05-19 23:32:00,69.7,67.3,30.08,SW,229,0.0,0.0,92,0.03,RA,,0.03,WeatherDisplay:10.37,2013-05-20 03:32:00,
2013-05-19 23:37:00,69.5,67.1,30.08,SW,227,0.0,0.0,92,0.03,RA,,0.03,WeatherDisplay:10.37,2013-05-20 03:37:00,
2013-05-19 23:42:00,69.3,67.2,30.07,SW,227,0.0,0.0,93,0.03,,,0.03,WeatherDisplay:10.37,2013-05-20 03:42:00,
2013-05-19 23:47:00,69.2,67.1,30.06,SW,227,0.0,0.0,93,0.04,RA,,0.04,WeatherDisplay:10.37,2013-05-20 03:47:00,
2013-05-19 23:52:00,69.0,67.2,30.06,SW,227,0.0,0.0,94,0.05,RA,,0.05,WeatherDisplay:10.37,2013-05-20 03:52:00,
2013-05-19 23:57:00,68.9,67.1,30.06,SSW,198,1.1,1.1,94,0.05,RA,,0.06,WeatherDisplay:10.37,2013-05-20 03:57:00,